createdAt,value
2018-04-06T00:00:25.111Z,6.50
2018-04-06T00:02:53.980Z,6.50
2018-04-06T00:05:22.995Z,6.20
2018-04-06T00:07:51.419Z,6.30
2018-04-06T00:10:20.287Z,6.50
2018-04-06T00:12:48.547Z,6.50
2018-04-06T00:15:16.817Z,6.50
2018-04-06T00:17:45.895Z,6.50
2018-04-06T00:20:14.173Z,6.50
2018-04-06T00:22:42.393Z,6.50
2018-04-06T00:25:11.098Z,6.40
2018-04-06T00:27:39.411Z,6.50
2018-04-06T00:30:07.706Z,6.60
2018-04-06T00:32:35.953Z,6.60
2018-04-06T00:35:04.190Z,6.50
2018-04-06T00:37:33.235Z,6.50
2018-04-06T00:40:07.174Z,6.40
2018-04-06T00:42:39.160Z,6.40
2018-04-06T00:45:07.894Z,6.30
2018-04-06T00:47:36.166Z,6.50
2018-04-06T00:50:05.162Z,6.40
2018-04-06T00:52:34.311Z,6.10
2018-04-06T00:55:03.383Z,6.50
2018-04-06T00:57:31.618Z,6.50
2018-04-06T01:00:00.622Z,6.20
2018-04-06T01:02:28.878Z,6.30
2018-04-06T01:04:58.078Z,6.30
2018-04-06T01:07:27.121Z,6.00
2018-04-06T01:09:55.346Z,6.30
2018-04-06T01:12:23.601Z,6.40
2018-04-06T01:14:51.874Z,6.40
2018-04-06T01:17:20.110Z,6.20
2018-04-06T01:19:50.690Z,6.50
2018-04-06T01:22:18.960Z,6.00
2018-04-06T01:24:47.211Z,6.30
2018-04-06T01:27:15.490Z,6.50
2018-04-06T01:29:44.507Z,6.50
2018-04-06T01:32:12.789Z,6.40
2018-04-06T01:34:41.054Z,6.20
2018-04-06T01:37:09.321Z,6.00
2018-04-06T01:39:38.372Z,6.20
2018-04-06T01:42:07.585Z,6.10
2018-04-06T01:44:35.867Z,6.20
2018-04-06T01:47:04.107Z,6.20
2018-04-06T01:49:32.448Z,6.40
2018-04-06T01:52:00.927Z,6.10
2018-04-06T01:54:29.137Z,6.40
2018-04-06T01:56:57.418Z,6.20
2018-04-06T01:59:26.891Z,6.40
2018-04-06T02:01:55.148Z,6.30
2018-04-06T02:04:23.414Z,6.10
2018-04-06T02:06:52.500Z,6.00
2018-04-06T02:09:28.474Z,6.10
2018-04-06T02:11:56.729Z,6.20
2018-04-06T02:14:25.737Z,6.00
2018-04-06T02:16:54.054Z,6.20
2018-04-06T02:19:23.883Z,6.20
2018-04-06T02:21:52.329Z,5.90
2018-04-06T02:24:21.176Z,5.90
2018-04-06T02:26:50.162Z,5.90
2018-04-06T02:29:19.924Z,5.90
2018-04-06T02:31:48.194Z,5.70
2018-04-06T02:34:16.562Z,6.00
2018-04-06T02:36:45.674Z,6.10
2018-04-06T02:39:14.710Z,5.80
2018-04-06T02:41:42.962Z,5.70
2018-04-06T02:44:11.220Z,6.00
2018-04-06T02:46:40.252Z,5.70
2018-04-06T02:49:08.522Z,6.00
2018-04-06T02:51:36.799Z,5.80
2018-04-06T02:54:05.028Z,6.00
2018-04-06T02:56:33.328Z,5.80
2018-04-06T02:59:01.593Z,5.80
2018-04-06T03:01:29.841Z,5.70
2018-04-06T03:03:58.268Z,5.90
2018-04-06T03:06:27.497Z,5.80
2018-04-06T03:08:56.518Z,6.10
2018-04-06T03:11:24.789Z,6.00
2018-04-06T03:13:53.030Z,5.70
2018-04-06T03:16:22.051Z,5.70
2018-04-06T03:18:50.911Z,5.70
2018-04-06T03:21:19.154Z,5.80
2018-04-06T03:23:47.409Z,6.00
2018-04-06T03:26:15.746Z,5.80
2018-04-06T03:28:44.137Z,5.70
2018-04-06T03:31:12.355Z,5.70
2018-04-06T03:33:40.699Z,5.50
2018-04-06T03:36:08.899Z,5.90
2018-04-06T03:38:37.940Z,5.70
2018-04-06T03:41:06.254Z,5.90
2018-04-06T03:43:34.476Z,5.90
2018-04-06T03:46:03.737Z,5.50
2018-04-06T03:48:32.306Z,5.60
2018-04-06T03:51:00.605Z,5.50
2018-04-06T03:53:28.988Z,5.50
2018-04-06T03:55:57.203Z,5.50
2018-04-06T03:58:25.560Z,5.60
2018-04-06T04:00:53.890Z,5.60
2018-04-06T04:03:22.141Z,5.50
2018-04-06T04:05:51.313Z,5.60
2018-04-06T04:08:19.521Z,5.50
2018-04-06T04:10:47.826Z,5.70
2018-04-06T04:13:16.185Z,5.60
2018-04-06T04:15:45.056Z,5.50
2018-04-06T04:18:13.327Z,5.50
2018-04-06T04:20:41.573Z,5.30
2018-04-06T04:23:09.850Z,5.30
2018-04-06T04:25:38.246Z,5.70
2018-04-06T04:28:06.575Z,5.50
2018-04-06T04:30:36.414Z,5.60
2018-04-06T04:33:04.667Z,5.20
2018-04-06T04:35:32.978Z,5.50
2018-04-06T04:38:02.535Z,5.20
2018-04-06T04:40:32.304Z,5.20
2018-04-06T04:43:00.609Z,5.20
2018-04-06T04:45:28.845Z,5.20
2018-04-06T04:47:57.918Z,5.20
2018-04-06T04:50:26.307Z,5.20
2018-04-06T04:52:54.566Z,5.40
2018-04-06T04:55:22.766Z,5.20
2018-04-06T04:57:51.017Z,5.20
2018-04-06T05:00:19.249Z,5.30
2018-04-06T05:02:49.065Z,5.20
2018-04-06T05:05:18.114Z,5.00
2018-04-06T05:07:46.361Z,5.00
2018-04-06T05:10:14.616Z,5.00
2018-04-06T05:12:43.642Z,5.00
2018-04-06T05:15:11.916Z,4.90
2018-04-06T05:17:40.211Z,5.10
2018-04-06T05:20:08.460Z,4.90
2018-04-06T05:22:37.284Z,5.00
2018-04-06T05:25:05.641Z,5.00
2018-04-06T05:27:34.670Z,5.00
2018-04-06T05:30:03.011Z,5.00
2018-04-06T05:32:32.009Z,5.20
2018-04-06T05:35:01.084Z,4.90
2018-04-06T05:37:29.333Z,4.90
2018-04-06T05:39:57.561Z,5.00
2018-04-06T05:42:26.589Z,5.20
2018-04-06T05:44:55.413Z,5.30
2018-04-06T05:47:23.684Z,5.20
2018-04-06T05:49:51.981Z,5.50
2018-04-06T05:52:20.533Z,5.50
2018-04-06T05:54:48.919Z,5.40
2018-04-06T05:57:17.163Z,5.40
2018-04-06T05:59:46.270Z,5.40
2018-04-06T06:02:15.297Z,5.90
2018-04-06T06:04:43.576Z,5.60
2018-04-06T06:07:14.953Z,5.70
2018-04-06T06:09:45.514Z,5.80
2018-04-06T06:12:13.765Z,5.70
2018-04-06T06:14:42.034Z,6.10
2018-04-06T06:17:10.286Z,6.00
2018-04-06T06:19:39.474Z,6.00
2018-04-06T06:22:08.601Z,5.90
2018-04-06T06:24:36.876Z,6.00
2018-04-06T06:27:06.035Z,6.10
2018-04-06T06:29:36.873Z,6.00
2018-04-06T06:32:05.872Z,6.20
2018-04-06T06:34:34.086Z,6.10
2018-04-06T06:37:02.339Z,6.40
2018-04-06T06:39:30.607Z,6.30
2018-04-06T06:41:58.849Z,6.30
2018-04-06T06:44:27.108Z,6.60
2018-04-06T06:46:56.130Z,6.70
2018-04-06T06:49:24.409Z,6.70
2018-04-06T06:51:52.735Z,6.80
2018-04-06T06:54:22.403Z,7.00
2018-04-06T06:56:51.141Z,6.70
2018-04-06T06:59:20.207Z,7.00
2018-04-06T07:01:49.477Z,7.00
2018-04-06T07:04:18.480Z,7.00
2018-04-06T07:06:48.433Z,7.30
2018-04-06T07:09:16.667Z,7.20
2018-04-06T07:11:44.977Z,7.20
2018-04-06T07:14:13.209Z,7.30
2018-04-06T07:16:43.235Z,7.50
2018-04-06T07:19:11.594Z,7.50
2018-04-06T07:21:39.879Z,7.80
2018-04-06T07:24:10.150Z,7.80
2018-04-06T07:26:38.400Z,8.00
2018-04-06T07:29:09.346Z,7.80
2018-04-06T07:31:38.386Z,8.00
2018-04-06T07:34:06.626Z,7.80
2018-04-06T07:36:35.655Z,8.20
2018-04-06T07:39:03.911Z,8.30
2018-04-06T07:41:32.937Z,8.40
2018-04-06T07:44:01.272Z,8.60
2018-04-06T07:46:30.665Z,8.70
2018-04-06T07:48:59.194Z,8.50
2018-04-06T07:51:27.535Z,8.90
2018-04-06T07:53:56.814Z,8.90
2018-04-06T07:56:25.058Z,8.90
2018-04-06T07:58:54.327Z,9.00
2018-04-06T08:01:22.603Z,8.80
2018-04-06T08:03:50.844Z,9.10
2018-04-06T08:06:19.082Z,8.90
2018-04-06T08:08:48.258Z,9.30
2018-04-06T08:11:16.493Z,9.20
2018-04-06T08:13:44.831Z,9.50
2018-04-06T08:16:13.054Z,9.50
2018-04-06T08:18:41.340Z,9.50
2018-04-06T08:21:09.653Z,9.50
2018-04-06T08:23:37.933Z,9.50
2018-04-06T08:26:06.198Z,9.70
2018-04-06T08:28:34.415Z,9.90
2018-04-06T08:31:02.906Z,9.80
2018-04-06T08:33:32.103Z,9.90
2018-04-06T08:36:00.512Z,10.00
2018-04-06T08:38:29.515Z,10.20
2018-04-06T08:40:57.792Z,10.20
2018-04-06T08:43:26.058Z,10.20
2018-04-06T08:45:55.092Z,10.30
2018-04-06T08:48:25.428Z,10.50
2018-04-06T08:50:53.745Z,10.60
2018-04-06T08:53:22.025Z,10.50
2018-04-06T08:55:51.782Z,10.50
2018-04-06T08:58:21.005Z,10.60
2018-04-06T09:00:50.705Z,10.80
2018-04-06T09:03:19.061Z,10.60
2018-04-06T09:05:47.327Z,11.00
2018-04-06T09:08:15.869Z,11.10
2018-04-06T09:10:44.184Z,11.10
2018-04-06T09:13:12.862Z,11.50
2018-04-06T09:15:41.980Z,11.30
2018-04-06T09:18:10.230Z,11.50
2018-04-06T09:20:38.511Z,11.50
2018-04-06T09:23:06.778Z,11.60
2018-04-06T09:25:35.015Z,11.60
2018-04-06T09:28:04.059Z,11.50
2018-04-06T09:30:32.283Z,11.40
2018-04-06T09:33:00.578Z,11.90
2018-04-06T09:35:29.732Z,11.70
2018-04-06T09:38:00.023Z,12.00
2018-04-06T09:40:28.287Z,11.80
2018-04-06T09:42:57.345Z,12.30
2018-04-06T09:45:25.617Z,12.10
2018-04-06T09:47:53.867Z,12.10
2018-04-06T09:50:22.126Z,12.10
2018-04-06T09:52:51.134Z,12.40
2018-04-06T09:55:19.393Z,12.60
2018-04-06T09:57:47.762Z,12.60
2018-04-06T10:00:21.817Z,12.60
2018-04-06T10:02:50.174Z,12.60
2018-04-06T10:05:18.437Z,12.50
2018-04-06T10:07:46.868Z,12.70
2018-04-06T10:10:16.033Z,13.00
2018-04-06T10:12:44.306Z,12.90
2018-04-06T10:15:12.558Z,13.20
2018-04-06T10:17:40.826Z,13.00
2018-04-06T10:20:12.989Z,13.10
2018-04-06T10:22:41.413Z,13.20
2018-04-06T10:25:10.620Z,13.40
2018-04-06T10:27:38.871Z,13.20
2018-04-06T10:30:07.150Z,13.40
2018-04-06T10:32:35.400Z,13.50
2018-04-06T10:35:04.399Z,13.50
2018-04-06T10:37:32.650Z,13.70
2018-04-06T10:40:00.894Z,13.80
2018-04-06T10:42:30.160Z,14.10
2018-04-06T10:44:58.407Z,14.00
2018-04-06T10:47:26.661Z,14.00
2018-04-06T10:49:54.932Z,13.80
2018-04-06T10:52:23.166Z,14.00
2018-04-06T10:54:51.674Z,13.80
2018-04-06T10:57:20.819Z,13.80
2018-04-06T10:59:49.108Z,13.80
2018-04-06T11:02:17.381Z,14.10
2018-04-06T11:04:45.742Z,14.30
2018-04-06T11:07:14.028Z,14.50
2018-04-06T11:09:42.357Z,14.60
2018-04-06T11:12:11.592Z,14.60
2018-04-06T11:14:39.945Z,14.50
2018-04-06T11:17:08.180Z,14.40
2018-04-06T11:19:36.622Z,14.40
2018-04-06T11:22:07.153Z,14.60
2018-04-06T11:24:35.410Z,14.60
2018-04-06T11:27:04.466Z,14.80
2018-04-06T11:29:32.743Z,14.60
2018-04-06T11:32:01.122Z,14.80
2018-04-06T11:34:29.408Z,14.80
2018-04-06T11:36:58.632Z,14.90
2018-04-06T11:39:26.894Z,15.20
2018-04-06T11:41:55.166Z,15.20
2018-04-06T11:44:23.414Z,15.20
2018-04-06T11:46:53.476Z,15.30
2018-04-06T11:49:21.725Z,15.20
2018-04-06T11:51:49.993Z,15.20
2018-04-06T11:54:19.102Z,15.30
2018-04-06T11:56:48.932Z,15.20
2018-04-06T11:59:17.199Z,15.40
2018-04-06T12:01:45.471Z,15.20
2018-04-06T12:04:13.821Z,15.60
2018-04-06T12:06:42.032Z,15.40
2018-04-06T12:09:11.770Z,15.50
2018-04-06T12:11:41.015Z,15.50
2018-04-06T12:14:09.228Z,15.80
2018-04-06T12:16:38.289Z,16.00
2018-04-06T12:19:07.426Z,15.70
2018-04-06T12:21:35.690Z,15.70
2018-04-06T12:24:04.715Z,15.70
2018-04-06T12:26:34.269Z,16.20
2018-04-06T12:29:02.532Z,16.00
2018-04-06T12:31:30.804Z,16.10
2018-04-06T12:33:59.043Z,16.00
2018-04-06T12:36:28.097Z,16.10
2018-04-06T12:38:56.460Z,16.10
2018-04-06T12:41:24.694Z,16.40
2018-04-06T12:43:52.936Z,16.30
2018-04-06T12:46:22.073Z,16.20
2018-04-06T12:48:51.187Z,16.10
2018-04-06T12:51:19.396Z,16.50
2018-04-06T12:53:47.875Z,16.60
2018-04-06T12:56:17.144Z,16.40
2018-04-06T12:58:45.413Z,16.60
2018-04-06T13:01:13.641Z,16.30
2018-04-06T13:03:41.969Z,16.50
2018-04-06T13:06:11.126Z,16.50
2018-04-06T13:08:39.387Z,16.50
2018-04-06T13:11:07.691Z,16.60
2018-04-06T13:13:35.958Z,16.30
2018-04-06T13:16:05.100Z,16.60
2018-04-06T13:18:33.351Z,16.80
2018-04-06T13:21:01.602Z,16.50
2018-04-06T13:23:30.673Z,16.60
2018-04-06T13:25:58.983Z,16.70
2018-04-06T13:28:28.065Z,16.60
2018-04-06T13:30:56.302Z,16.60
2018-04-06T13:33:24.586Z,16.70
2018-04-06T13:35:52.855Z,16.60
2018-04-06T13:38:21.878Z,16.70
2018-04-06T13:40:50.174Z,16.80
2018-04-06T13:43:19.237Z,16.80
2018-04-06T13:45:47.625Z,16.70
2018-04-06T13:48:15.874Z,16.80
2018-04-06T13:50:44.117Z,16.60
2018-04-06T13:53:12.428Z,16.80
2018-04-06T13:55:40.679Z,17.30
2018-04-06T13:58:08.952Z,17.10
2018-04-06T14:00:37.222Z,17.00
2018-04-06T14:03:05.573Z,17.10
2018-04-06T14:05:33.856Z,17.10
2018-04-06T14:08:03.895Z,17.20
2018-04-06T14:10:32.813Z,17.20
2018-04-06T14:13:01.280Z,17.20
2018-04-06T14:15:29.578Z,17.20
2018-04-06T14:17:57.842Z,17.10
2018-04-06T14:20:26.094Z,17.20
2018-04-06T14:22:54.391Z,17.00
2018-04-06T14:25:22.625Z,17.40
2018-04-06T14:27:51.668Z,17.30
2018-04-06T14:30:19.982Z,17.40
2018-04-06T14:32:48.211Z,17.10
2018-04-06T14:35:16.499Z,17.10
2018-04-06T14:37:44.742Z,17.40
2018-04-06T14:40:13.065Z,17.30
2018-04-06T14:42:41.341Z,17.30
2018-04-06T14:45:11.064Z,17.20
2018-04-06T14:47:39.346Z,17.30
2018-04-06T14:50:07.685Z,17.20
2018-04-06T14:52:37.370Z,17.30
2018-04-06T14:55:05.587Z,17.10
2018-04-06T14:57:34.629Z,17.20
2018-04-06T15:00:02.912Z,17.30
2018-04-06T15:02:32.448Z,17.20
2018-04-06T15:05:00.883Z,17.20
2018-04-06T15:07:29.160Z,17.40
2018-04-06T15:09:57.395Z,17.20
2018-04-06T15:12:25.724Z,17.40
2018-04-06T15:14:54.046Z,17.50
2018-04-06T15:17:22.792Z,17.30
2018-04-06T15:19:51.121Z,17.50
2018-04-06T15:22:19.363Z,17.50
2018-04-06T15:24:47.637Z,17.60
2018-04-06T15:27:15.900Z,17.60
2018-04-06T15:29:45.174Z,17.60
2018-04-06T15:32:13.496Z,17.50
2018-04-06T15:34:42.490Z,17.40
2018-04-06T15:37:10.970Z,17.60
2018-04-06T15:39:40.137Z,17.50
2018-04-06T15:42:09.345Z,17.50
2018-04-06T15:44:38.874Z,17.50
2018-04-06T15:47:08.770Z,17.40
2018-04-06T15:49:37.813Z,17.40
2018-04-06T15:52:06.795Z,17.30
2018-04-06T15:54:35.861Z,17.30
2018-04-06T15:57:04.894Z,17.30
2018-04-06T15:59:33.123Z,17.10
2018-04-06T16:02:02.367Z,17.30
2018-04-06T16:04:31.397Z,17.20
2018-04-06T16:06:59.813Z,17.20
2018-04-06T16:09:32.086Z,17.30
2018-04-06T16:12:00.408Z,17.30
2018-04-06T16:14:28.657Z,17.10
2018-04-06T16:16:56.918Z,17.30
2018-04-06T16:19:25.519Z,17.40
2018-04-06T16:21:53.774Z,17.10
2018-04-06T16:24:22.044Z,17.30
2018-04-06T16:26:50.365Z,17.30
2018-04-06T16:29:18.755Z,17.30
2018-04-06T16:31:47.088Z,17.30
2018-04-06T16:34:15.315Z,17.40
2018-04-06T16:36:43.558Z,17.20
2018-04-06T16:39:11.915Z,17.30
2018-04-06T16:41:40.918Z,17.20
2018-04-06T16:44:10.915Z,17.20
2018-04-06T16:46:40.425Z,17.20
2018-04-06T16:49:09.075Z,17.30
2018-04-06T16:51:38.095Z,17.20
2018-04-06T16:54:07.110Z,17.00
2018-04-06T16:56:36.195Z,17.20
2018-04-06T16:59:05.250Z,17.00
2018-04-06T17:01:33.617Z,17.00
2018-04-06T17:04:01.906Z,17.10
2018-04-06T17:06:30.170Z,16.90
2018-04-06T17:08:58.449Z,17.10
2018-04-06T17:11:26.840Z,16.90
2018-04-06T17:13:55.104Z,16.80
2018-04-06T17:16:24.227Z,16.60
2018-04-06T17:18:52.490Z,16.70
2018-04-06T17:21:20.757Z,16.90
2018-04-06T17:23:49.027Z,17.00
2018-04-06T17:26:17.292Z,16.80
2018-04-06T17:28:47.097Z,16.80
2018-04-06T17:31:15.376Z,16.60
2018-04-06T17:33:43.612Z,16.50
2018-04-06T17:36:11.904Z,16.40
2018-04-06T17:38:40.330Z,16.30
2018-04-06T17:41:08.629Z,16.50
2018-04-06T17:43:37.658Z,16.70
2018-04-06T17:46:05.912Z,16.50
2018-04-06T17:48:34.351Z,16.40
2018-04-06T17:51:03.040Z,16.50
2018-04-06T17:53:31.454Z,16.40
2018-04-06T17:56:00.418Z,16.20
2018-04-06T17:58:28.743Z,16.20
2018-04-06T18:00:57.199Z,16.50
2018-04-06T18:03:25.554Z,16.30
2018-04-06T18:05:53.840Z,16.30
2018-04-06T18:08:24.152Z,16.30
2018-04-06T18:10:52.586Z,15.90
2018-04-06T18:13:20.806Z,16.00
2018-04-06T18:15:49.088Z,15.90
2018-04-06T18:18:17.373Z,15.80
2018-04-06T18:20:46.465Z,16.00
2018-04-06T18:23:14.731Z,16.10
2018-04-06T18:25:43.922Z,15.80
2018-04-06T18:28:13.008Z,15.90
2018-04-06T18:30:41.242Z,15.80
2018-04-06T18:33:09.663Z,16.10
2018-04-06T18:35:38.045Z,15.90
2018-04-06T18:38:06.267Z,15.80
2018-04-06T18:40:36.199Z,16.00
2018-04-06T18:43:06.535Z,16.10
2018-04-06T18:45:35.276Z,16.10
2018-04-06T18:48:04.317Z,15.90
2018-04-06T18:50:32.574Z,15.90
2018-04-06T18:53:00.870Z,15.70
2018-04-06T18:55:29.162Z,15.80
2018-04-06T18:57:57.581Z,15.80
2018-04-06T19:00:25.841Z,15.90
2018-04-06T19:02:54.145Z,15.70
2018-04-06T19:05:22.474Z,15.80
2018-04-06T19:07:51.687Z,15.70
2018-04-06T19:10:19.988Z,16.00
2018-04-06T19:12:49.267Z,15.90
2018-04-06T19:15:18.522Z,15.90
2018-04-06T19:17:46.898Z,15.80
2018-04-06T19:20:15.158Z,15.60
2018-04-06T19:22:43.589Z,15.40
2018-04-06T19:25:13.214Z,15.40
2018-04-06T19:30:16.172Z,15.40
2018-04-06T19:32:44.487Z,14.90
2018-04-06T19:35:13.579Z,15.00
2018-04-06T19:37:41.824Z,15.20
2018-04-06T19:40:10.091Z,15.10
2018-04-06T19:42:38.401Z,15.20
2018-04-06T19:45:06.745Z,14.80
2018-04-06T19:47:36.057Z,14.90
2018-04-06T19:50:04.473Z,15.00
2018-04-06T19:52:32.748Z,15.10
2018-04-06T19:55:01.002Z,15.00
2018-04-06T19:57:29.281Z,14.60
2018-04-06T19:59:57.606Z,14.80
2018-04-06T20:02:26.656Z,14.60
2018-04-06T20:04:54.900Z,14.60
2018-04-06T20:07:23.964Z,14.60
2018-04-06T20:09:52.256Z,14.50
2018-04-06T20:12:20.511Z,14.60
2018-04-06T20:14:48.806Z,14.50
2018-04-06T20:17:18.550Z,14.90
2018-04-06T20:19:47.571Z,14.70
2018-04-06T20:22:16.921Z,14.60
2018-04-06T20:24:45.169Z,14.60
2018-04-06T20:27:13.430Z,14.60
2018-04-06T20:29:41.776Z,14.90
2018-04-06T20:32:10.852Z,14.60
2018-04-06T20:37:13.805Z,14.50
2018-04-06T20:39:42.883Z,14.50
2018-04-06T20:42:11.130Z,14.50
2018-04-06T20:44:39.434Z,14.40
2018-04-06T20:47:07.770Z,14.30
2018-04-06T20:49:36.108Z,14.50
2018-04-06T20:52:04.467Z,14.40
2018-04-06T20:54:32.873Z,14.40
2018-04-06T20:57:01.099Z,14.40
2018-04-06T20:59:29.386Z,14.40
2018-04-06T21:01:57.664Z,14.40
2018-04-06T21:04:25.986Z,14.30
2018-04-06T21:06:55.064Z,14.40
2018-04-06T21:09:23.416Z,14.20
2018-04-06T21:11:51.672Z,14.20
2018-04-06T21:14:20.824Z,14.30
2018-04-06T21:16:49.054Z,14.20
2018-04-06T21:19:18.080Z,14.50
2018-04-06T21:21:46.710Z,14.10
2018-04-06T21:24:15.048Z,14.20
2018-04-06T21:26:44.073Z,14.30
2018-04-06T21:29:12.331Z,14.20
2018-04-06T21:31:40.607Z,14.40
2018-04-06T21:34:08.899Z,14.00
2018-04-06T21:36:37.225Z,14.20
2018-04-06T21:39:06.289Z,14.00
2018-04-06T21:41:34.557Z,14.20
2018-04-06T21:44:02.797Z,14.40
2018-04-06T21:46:31.861Z,13.80
2018-04-06T21:49:00.185Z,13.90
2018-04-06T21:51:30.166Z,13.90
2018-04-06T21:53:58.444Z,14.20
2018-04-06T21:56:27.414Z,14.40
2018-04-06T21:58:55.673Z,13.80
2018-04-06T22:01:24.726Z,13.90
2018-04-06T22:03:53.007Z,13.90
2018-04-06T22:06:22.099Z,14.20
2018-04-06T22:08:50.360Z,14.20
2018-04-06T22:11:18.621Z,14.00
2018-04-06T22:13:47.617Z,14.20
2018-04-06T22:16:15.881Z,14.30
2018-04-06T22:18:44.914Z,14.20
2018-04-06T22:21:13.176Z,14.40
2018-04-06T22:23:41.504Z,14.10
2018-04-06T22:26:09.763Z,14.20
2018-04-06T22:28:38.065Z,14.20
2018-04-06T22:31:06.373Z,14.20
2018-04-06T22:33:34.595Z,14.30
2018-04-06T22:36:03.014Z,14.40
2018-04-06T22:38:31.342Z,14.30
2018-04-06T22:41:00.382Z,14.20
2018-04-06T22:43:28.642Z,14.10
2018-04-06T22:45:56.866Z,14.30
2018-04-06T22:48:25.913Z,13.90
2018-04-06T22:50:54.344Z,14.30
2018-04-06T22:53:22.563Z,14.20
2018-04-06T22:55:50.806Z,14.30
2018-04-06T22:58:20.704Z,14.40
2018-04-06T23:00:48.971Z,14.00
2018-04-06T23:03:17.200Z,14.20
2018-04-06T23:05:47.073Z,14.30
2018-04-06T23:08:15.342Z,14.40
2018-04-06T23:10:43.564Z,14.20
2018-04-06T23:13:11.906Z,13.90
2018-04-06T23:15:40.157Z,14.20
2018-04-06T23:18:09.182Z,14.20
2018-04-06T23:20:37.500Z,14.30
2018-04-06T23:23:05.753Z,14.30
2018-04-06T23:25:34.020Z,14.10
2018-04-06T23:28:02.258Z,14.30
2018-04-06T23:30:32.087Z,14.20
2018-04-06T23:33:01.153Z,14.30
2018-04-06T23:35:30.632Z,14.40
2018-04-06T23:37:58.961Z,14.20
2018-04-06T23:40:27.991Z,14.10
2018-04-06T23:42:57.003Z,14.10
2018-04-06T23:45:25.281Z,14.20
2018-04-06T23:47:53.598Z,14.30
2018-04-06T23:50:21.883Z,14.30
2018-04-06T23:52:50.151Z,14.10
2018-04-06T23:55:18.396Z,14.00
2018-04-06T23:57:46.695Z,14.30
